Time;durP1;ratioP1;P1;durP2;ratioP2;P2;SDS_P1;SDS_P2;PMS_P1;PMS_P2;Temp;Humidity;BMP_temperature;BMP_pressure;BME280_temperature;BME280_humidity;BME280_pressure;Samples;Min_cycle;Max_cycle;Signal;HPM_P1;HPM_P2
2022/06/03 00:01:11;;;;;;;4.20;3.80;;;;;;;;;;5119331;27;20449;-74
2022/06/03 00:03:49;;;;;;;3.70;3.33;;;;;;;;;;5111470;28;20452;-76
2022/06/03 00:06:31;;;;;;;3.67;3.20;;;;;;;;;;5111386;28;20966;-75
2022/06/03 00:09:04;;;;;;;4.67;3.43;;;;;;;;;;5124430;27;20533;-75
2022/06/03 00:11:40;;;;;;;4.33;3.13;;;;;;;;;;5116412;27;20431;-74
2022/06/03 00:14:14;;;;;;;3.17;2.97;;;;;;;;;;5117749;27;20523;-73
2022/06/03 00:16:49;;;;;;;3.27;2.60;;;;;;;;;;5110886;27;20490;-74
2022/06/03 00:19:31;;;;;;;3.70;3.03;;;;;;;;;;5111261;28;20438;-74
2022/06/03 00:22:06;;;;;;;3.33;3.03;;;;;;;;;;5095832;28;20534;-73
2022/06/03 00:24:39;;;;;;;3.60;3.30;;;;;;;;;;5111489;28;20537;-74
2022/06/03 00:27:15;;;;;;;3.87;3.37;;;;;;;;;;5111181;28;20582;-74
2022/06/03 00:29:51;;;;;;;4.00;3.43;;;;;;;;;;5112816;27;20442;-73
2022/06/03 00:32:26;;;;;;;3.43;3.13;;;;;;;;;;5131290;27;20441;-74
2022/06/03 00:34:58;;;;;;;3.20;2.90;;;;;;;;;;5117649;27;20469;-74
2022/06/03 00:37:32;;;;;;;3.20;2.90;;;;;;;;;;5120515;27;20450;-74
2022/06/03 00:40:01;;;;;;;4.27;3.77;;;;;;;;;;5113152;27;20430;-75
2022/06/03 00:42:36;;;;;;;4.03;3.63;;;;;;;;;;5130867;27;20429;-76
2022/06/03 00:45:13;;;;;;;3.77;3.33;;;;;;;;;;5131785;27;20437;-74
2022/06/03 00:47:47;;;;;;;4.17;3.30;;;;;;;;;;5131500;27;20552;-74
2022/06/03 00:50:25;;;;;;;3.07;2.77;;;;;;;;;;5119165;27;20526;-73
2022/06/03 00:53:03;;;;;;;4.27;3.63;;;;;;;;;;5112417;27;20442;-74
2022/06/03 00:55:41;;;;;;;3.63;3.30;;;;;;;;;;5113436;27;20994;-73
2022/06/03 00:58:18;;;;;;;3.57;3.27;;;;;;;;;;5116957;27;20448;-73
2022/06/03 01:00:55;;;;;;;3.77;3.30;;;;;;;;;;5113192;27;20426;-75
2022/06/03 01:03:30;;;;;;;3.20;3.00;;;;;;;;;;5091998;28;20450;-73
2022/06/03 01:06:08;;;;;;;3.67;3.37;;;;;;;;;;5110126;28;20448;-75
2022/06/03 01:08:43;;;;;;;3.17;2.87;;;;;;;;;;5110682;28;20521;-73
2022/06/03 01:11:17;;;;;;;3.00;2.77;;;;;;;;;;5109747;28;20927;-73
2022/06/03 01:14:02;;;;;;;3.60;3.30;;;;;;;;;;5091674;28;20529;-73
2022/06/03 01:16:34;;;;;;;4.43;3.17;;;;;;;;;;5091570;28;21010;-73
2022/06/03 01:19:20;;;;;;;3.80;3.43;;;;;;;;;;5110428;27;20442;-73
2022/06/03 01:21:51;;;;;;;5.50;3.20;;;;;;;;;;5098872;28;20469;-73
2022/06/03 01:24:30;;;;;;;3.83;3.53;;;;;;;;;;5096614;27;20789;-75
2022/06/03 01:27:10;;;;;;;3.77;2.90;;;;;;;;;;5130007;27;20479;-74
2022/06/03 01:29:46;;;;;;;6.43;3.50;;;;;;;;;;5130769;27;20720;-75
2022/06/03 01:32:28;;;;;;;3.37;3.07;;;;;;;;;;5130871;27;20993;-75
2022/06/03 01:35:08;;;;;;;3.47;3.17;;;;;;;;;;5104947;28;20443;-74
2022/06/03 01:37:36;;;;;;;3.30;3.00;;;;;;;;;;5127701;27;20455;-74
2022/06/03 01:40:13;;;;;;;3.97;3.20;;;;;;;;;;5112272;27;20445;-75
2022/06/03 01:42:55;;;;;;;3.20;2.80;;;;;;;;;;5116209;28;20438;-74
2022/06/03 01:45:30;;;;;;;3.37;3.07;;;;;;;;;;5112272;28;20525;-74
2022/06/03 01:48:06;;;;;;;3.83;3.30;;;;;;;;;;5109629;28;20544;-74
2022/06/03 01:50:41;;;;;;;2.43;2.23;;;;;;;;;;5109671;28;20436;-75
2022/06/03 01:53:19;;;;;;;3.40;2.87;;;;;;;;;;5109720;28;20923;-73
2022/06/03 01:55:53;;;;;;;2.53;2.33;;;;;;;;;;5109750;28;20827;-75
2022/06/03 01:58:29;;;;;;;3.33;3.03;;;;;;;;;;5110828;28;20605;-75
2022/06/03 02:01:00;;;;;;;3.93;3.27;;;;;;;;;;5111616;28;20839;-75
2022/06/03 02:03:43;;;;;;;4.67;2.80;;;;;;;;;;5114459;28;20430;-73
2022/06/03 02:06:23;;;;;;;3.30;3.00;;;;;;;;;;5100516;28;20476;-74
2022/06/03 02:09:02;;;;;;;3.03;2.73;;;;;;;;;;5128968;28;20529;-74
2022/06/03 02:11:44;;;;;;;3.20;3.00;;;;;;;;;;5129738;28;20438;-75
2022/06/03 02:14:26;;;;;;;3.30;3.00;;;;;;;;;;5130042;28;20465;-74
2022/06/03 02:17:09;;;;;;;3.63;3.33;;;;;;;;;;5129048;27;20493;-74
2022/06/03 02:19:46;;;;;;;3.40;3.10;;;;;;;;;;5120282;28;20438;-74
2022/06/03 02:22:23;;;;;;;4.33;3.30;;;;;;;;;;5111482;28;20537;-73
2022/06/03 02:25:01;;;;;;;3.77;3.37;;;;;;;;;;5112221;28;20446;-75
2022/06/03 02:27:35;;;;;;;3.20;3.00;;;;;;;;;;5116027;27;20453;-74
2022/06/03 02:33:13;;;;;;;3.57;3.27;;;;;;;;;;5080355;28;20534;-75
2022/06/03 02:35:43;;;;;;;3.50;3.20;;;;;;;;;;5108204;28;20477;-74
2022/06/03 02:38:16;;;;;;;3.47;3.20;;;;;;;;;;5109578;28;20441;-74
2022/06/03 02:40:53;;;;;;;3.70;3.40;;;;;;;;;;5109351;28;20442;-73
2022/06/03 02:43:26;;;;;;;3.90;3.60;;;;;;;;;;5110484;28;20481;-74
2022/06/03 02:46:02;;;;;;;2.70;2.50;;;;;;;;;;5111318;28;20962;-72
2022/06/03 02:48:44;;;;;;;4.00;3.70;;;;;;;;;;5114588;28;20496;-73
2022/06/03 02:51:21;;;;;;;3.80;3.50;;;;;;;;;;5100106;28;21174;-74
2022/06/03 02:54:03;;;;;;;3.83;3.20;;;;;;;;;;5130417;27;21000;-74
2022/06/03 02:56:42;;;;;;;3.87;3.57;;;;;;;;;;5116841;27;20498;-74
2022/06/03 02:59:19;;;;;;;3.23;2.93;;;;;;;;;;5133276;27;20985;-74
2022/06/03 03:01:58;;;;;;;3.40;3.20;;;;;;;;;;5133446;27;20437;-76
2022/06/03 03:04:35;;;;;;;4.00;3.60;;;;;;;;;;5124112;27;20446;-75
2022/06/03 03:07:17;;;;;;;4.00;3.70;;;;;;;;;;5114645;28;20458;-75
2022/06/03 03:09:56;;;;;;;3.40;3.10;;;;;;;;;;5115982;27;20440;-75
2022/06/03 03:12:38;;;;;;;4.13;3.73;;;;;;;;;;5119017;27;20524;-76
2022/06/03 03:15:20;;;;;;;4.03;3.63;;;;;;;;;;5110301;27;20537;-75
2022/06/03 03:17:56;;;;;;;3.93;3.50;;;;;;;;;;5116226;27;20984;-75
2022/06/03 03:20:36;;;;;;;3.60;3.30;;;;;;;;;;5132651;27;20433;-75
2022/06/03 03:23:10;;;;;;;3.60;3.30;;;;;;;;;;5133225;27;20441;-77
2022/06/03 03:25:41;;;;;;;3.70;3.40;;;;;;;;;;5132073;27;20448;-75
2022/06/03 03:28:18;;;;;;;3.57;3.27;;;;;;;;;;5114122;28;20525;-76
2022/06/03 03:30:54;;;;;;;4.93;3.40;;;;;;;;;;5114314;28;20434;-75
2022/06/03 03:33:28;;;;;;;3.60;3.30;;;;;;;;;;5117451;27;20912;-74
2022/06/03 03:36:05;;;;;;;3.47;3.17;;;;;;;;;;5118567;27;20477;-74
2022/06/03 03:38:47;;;;;;;3.53;3.20;;;;;;;;;;5091032;28;20970;-74
2022/06/03 03:41:29;;;;;;;4.23;3.70;;;;;;;;;;5091002;28;20443;-74
2022/06/03 03:44:08;;;;;;;3.73;3.43;;;;;;;;;;5091802;28;20942;-75
2022/06/03 03:46:50;;;;;;;3.83;3.10;;;;;;;;;;5074005;28;20486;-74
2022/06/03 03:49:28;;;;;;;3.23;2.93;;;;;;;;;;5087579;28;20557;-77
2022/06/03 03:52:06;;;;;;;3.73;3.40;;;;;;;;;;5113730;28;20533;-76
2022/06/03 03:54:50;;;;;;;3.67;3.37;;;;;;;;;;5131301;27;20426;-76
2022/06/03 03:57:28;;;;;;;3.83;3.43;;;;;;;;;;5118192;27;20494;-74
2022/06/03 04:00:10;;;;;;;3.57;3.27;;;;;;;;;;5113067;27;20517;-76
2022/06/03 04:02:57;;;;;;;4.13;3.70;;;;;;;;;;5095262;28;20535;-74
2022/06/03 04:05:41;;;;;;;4.97;3.77;;;;;;;;;;5110802;28;20438;-75
2022/06/03 04:08:16;;;;;;;3.60;3.30;;;;;;;;;;5111819;28;20503;-73
2022/06/03 04:10:57;;;;;;;3.70;3.40;;;;;;;;;;5093391;28;20458;-75
2022/06/03 04:13:38;;;;;;;3.33;3.03;;;;;;;;;;5113435;28;20541;-73
2022/06/03 04:16:21;;;;;;;3.93;3.63;;;;;;;;;;5113949;27;20575;-74
2022/06/03 04:19:03;;;;;;;4.67;3.50;;;;;;;;;;5117092;27;20434;-76
2022/06/03 04:21:37;;;;;;;5.00;3.50;;;;;;;;;;5113330;27;20534;-74
2022/06/03 04:24:18;;;;;;;3.70;3.40;;;;;;;;;;5110913;28;20446;-76
2022/06/03 04:26:52;;;;;;;3.77;2.97;;;;;;;;;;5095102;28;20545;-74
2022/06/03 04:29:39;;;;;;;3.63;3.33;;;;;;;;;;5111063;28;20537;-74
2022/06/03 04:32:24;;;;;;;3.30;3.00;;;;;;;;;;5110978;28;20465;-75
2022/06/03 04:35:03;;;;;;;3.40;3.00;;;;;;;;;;5092689;28;20443;-75
2022/06/03 04:37:45;;;;;;;3.70;2.83;;;;;;;;;;5092402;28;20939;-74
2022/06/03 04:40:34;;;;;;;3.30;3.00;;;;;;;;;;5100285;27;20433;-75
2022/06/03 04:43:19;;;;;;;4.30;3.00;;;;;;;;;;5120266;27;20432;-74
2022/06/03 04:46:01;;;;;;;3.47;3.13;;;;;;;;;;5130876;27;20446;-76
2022/06/03 04:48:43;;;;;;;3.63;3.33;;;;;;;;;;5129877;27;20491;-75
2022/06/03 04:51:25;;;;;;;3.03;2.73;;;;;;;;;;5115130;27;21002;-75
2022/06/03 04:54:12;;;;;;;3.03;2.70;;;;;;;;;;5130383;27;20444;-74
2022/06/03 04:56:55;;;;;;;4.63;2.90;;;;;;;;;;5113339;27;20485;-74
2022/06/03 04:59:37;;;;;;;3.00;2.80;;;;;;;;;;5112833;28;20984;-74
2022/06/03 05:02:19;;;;;;;4.60;2.83;;;;;;;;;;5116442;27;20441;-74
2022/06/03 05:05:09;;;;;;;4.30;3.10;;;;;;;;;;5116315;27;20441;-74
2022/06/03 05:07:51;;;;;;;3.53;3.23;;;;;;;;;;5089023;28;20553;-76
2022/06/03 05:10:33;;;;;;;4.20;2.90;;;;;;;;;;5088651;28;20424;-75
2022/06/03 05:13:15;;;;;;;3.47;2.80;;;;;;;;;;5089386;28;20735;-75
2022/06/03 05:15:53;;;;;;;3.40;2.57;;;;;;;;;;5089086;28;20878;-75
2022/06/03 05:18:28;;;;;;;2.90;2.60;;;;;;;;;;5103396;28;21062;-74
2022/06/03 05:21:06;;;;;;;2.90;2.60;;;;;;;;;;5112184;28;20863;-73
2022/06/03 05:23:41;;;;;;;4.80;2.43;;;;;;;;;;5129621;27;20459;-76
2022/06/03 05:26:21;;;;;;;2.70;2.37;;;;;;;;;;5116910;27;20466;-75
2022/06/03 05:28:59;;;;;;;2.10;1.90;;;;;;;;;;5111578;28;20799;-75
2022/06/03 05:31:41;;;;;;;4.73;2.63;;;;;;;;;;5109715;28;20435;-75
2022/06/03 05:34:20;;;;;;;2.93;2.57;;;;;;;;;;5093877;28;20537;-76
2022/06/03 05:36:57;;;;;;;3.97;2.10;;;;;;;;;;5110759;28;20485;-76
2022/06/03 05:39:39;;;;;;;2.00;1.83;;;;;;;;;;5109987;28;20450;-75
2022/06/03 05:42:28;;;;;;;2.90;2.40;;;;;;;;;;5112195;28;20525;-76
2022/06/03 05:45:03;;;;;;;2.20;2.00;;;;;;;;;;5112098;28;20842;-78
2022/06/03 05:47:33;;;;;;;3.37;2.07;;;;;;;;;;5116272;27;20561;-74
2022/06/03 05:50:03;;;;;;;3.33;2.23;;;;;;;;;;5097591;28;20426;-73
2022/06/03 05:52:37;;;;;;;2.00;1.80;;;;;;;;;;5110728;28;20533;-75
2022/06/03 05:55:15;;;;;;;2.30;2.00;;;;;;;;;;5110814;28;20438;-73
2022/06/03 05:57:46;;;;;;;2.33;2.13;;;;;;;;;;5110348;28;20846;-75
2022/06/03 06:00:22;;;;;;;2.77;2.13;;;;;;;;;;5110822;28;20448;-75
2022/06/03 06:02:54;;;;;;;7.10;2.27;;;;;;;;;;5111161;28;20449;-74
2022/06/03 06:05:32;;;;;;;3.67;2.00;;;;;;;;;;5111779;28;20521;-73
2022/06/03 06:08:06;;;;;;;3.30;1.80;;;;;;;;;;5113671;28;20469;-75
2022/06/03 06:10:37;;;;;;;3.33;1.80;;;;;;;;;;5116399;28;20433;-73
2022/06/03 06:13:20;;;;;;;3.50;1.90;;;;;;;;;;5105955;28;20904;-75
2022/06/03 06:15:54;;;;;;;3.70;1.90;;;;;;;;;;5129744;27;20498;-76
2022/06/03 06:18:24;;;;;;;2.70;1.67;;;;;;;;;;5129715;28;20483;-76
2022/06/03 06:20:56;;;;;;;4.13;1.93;;;;;;;;;;5130409;28;20963;-75
2022/06/03 06:23:37;;;;;;;3.53;1.83;;;;;;;;;;5111761;28;20441;-74
2022/06/03 06:26:15;;;;;;;1.73;1.60;;;;;;;;;;5090840;28;20522;-73
2022/06/03 06:28:50;;;;;;;2.57;1.50;;;;;;;;;;5094743;28;20530;-75
2022/06/03 06:31:25;;;;;;;1.70;1.37;;;;;;;;;;5115021;27;21051;-75
2022/06/03 06:34:07;;;;;;;2.10;1.90;;;;;;;;;;5120198;27;20434;-75
2022/06/03 06:36:49;;;;;;;2.20;1.73;;;;;;;;;;5091917;28;20546;-76
2022/06/03 06:39:24;;;;;;;3.30;1.70;;;;;;;;;;5076680;28;21071;-74
2022/06/03 06:41:53;;;;;;;2.00;1.63;;;;;;;;;;5092817;28;20849;-75
2022/06/03 06:44:33;;;;;;;3.83;1.83;;;;;;;;;;5092762;28;20518;-75
2022/06/03 06:47:03;;;;;;;1.80;1.70;;;;;;;;;;5084146;28;20980;-75
2022/06/03 06:49:32;;;;;;;1.90;1.70;;;;;;;;;;5114858;28;20947;-75
2022/06/03 06:52:05;;;;;;;1.63;1.53;;;;;;;;;;5130977;27;20478;-74
2022/06/03 06:54:42;;;;;;;1.53;1.40;;;;;;;;;;5119830;27;20436;-74
2022/06/03 06:57:13;;;;;;;1.90;1.70;;;;;;;;;;5117756;27;20470;-75
2022/06/03 06:59:42;;;;;;;2.40;1.70;;;;;;;;;;5112379;28;20438;-76
2022/06/03 07:02:12;;;;;;;1.80;1.70;;;;;;;;;;5094324;28;20534;-75
2022/06/03 07:04:41;;;;;;;2.73;1.60;;;;;;;;;;5112668;28;20541;-74
2022/06/03 07:07:12;;;;;;;2.50;1.90;;;;;;;;;;5112929;28;20492;-74
2022/06/03 07:09:44;;;;;;;6.10;1.80;;;;;;;;;;5112991;28;20899;-76
2022/06/03 07:12:13;;;;;;;1.47;1.37;;;;;;;;;;5114748;28;20493;-74
2022/06/03 07:14:46;;;;;;;2.97;1.47;;;;;;;;;;5114842;27;20436;-76
2022/06/03 07:20:01;;;;;;;3.10;1.70;;;;;;;;;;5100760;28;20430;-74
2022/06/03 07:22:30;;;;;;;1.90;1.40;;;;;;;;;;5111987;28;20493;-75
2022/06/03 07:25:06;;;;;;;1.70;1.30;;;;;;;;;;5093956;28;20772;-74
2022/06/03 07:27:39;;;;;;;2.23;1.37;;;;;;;;;;5112278;28;20450;-75
2022/06/03 07:30:09;;;;;;;1.60;1.50;;;;;;;;;;5112624;28;20430;-74
2022/06/03 07:32:40;;;;;;;2.40;1.50;;;;;;;;;;5112650;28;20880;-73
2022/06/03 07:35:10;;;;;;;1.53;1.43;;;;;;;;;;5129781;27;20530;-75
